Time;durP1;ratioP1;P1;durP2;ratioP2;P2;SDS_P1;SDS_P2;PMS_P1;PMS_P2;Temp;Humidity;BMP_temperature;BMP_pressure;BME280_temperature;BME280_humidity;BME280_pressure;Samples;Min_cycle;Max_cycle;Signal;HPM_P1;HPM_P2
2022/07/17 00:00:30;;;;;;;6.47;1.98;;;13.60;99.90;;;;;;5061699;28;37173;-55
2022/07/17 00:02:57;;;;;;;6.72;2.28;;;13.50;99.90;;;;;;5063502;28;36449;-54
2022/07/17 00:05:24;;;;;;;4.88;2.17;;;13.50;99.90;;;;;;5063188;28;37607;-55
2022/07/17 00:07:52;;;;;;;7.95;3.03;;;13.40;99.90;;;;;;5062178;28;38094;-54
2022/07/17 00:10:19;;;;;;;6.88;2.10;;;13.40;99.90;;;;;;5063090;28;36811;-54
2022/07/17 00:12:46;;;;;;;6.32;2.60;;;13.40;99.90;;;;;;5062811;28;39586;-53
2022/07/17 00:15:15;;;;;;;6.07;2.72;;;13.40;99.90;;;;;;5061771;28;36562;-55
2022/07/17 00:17:42;;;;;;;5.93;2.15;;;13.30;99.90;;;;;;5063477;28;36809;-55
2022/07/17 00:20:11;;;;;;;7.55;3.20;;;13.30;99.90;;;;;;5061253;28;36541;-54
2022/07/17 00:22:38;;;;;;;5.05;2.10;;;13.30;99.90;;;;;;5064567;28;37655;-53
2022/07/17 00:25:07;;;;;;;8.35;2.38;;;13.20;99.90;;;;;;5062915;28;37809;-55
2022/07/17 00:27:34;;;;;;;6.20;2.28;;;13.30;99.90;;;;;;5062073;28;39439;-54
2022/07/17 00:30:02;;;;;;;9.57;2.45;;;13.20;99.90;;;;;;5061365;28;38091;-54
2022/07/17 00:32:30;;;;;;;5.18;2.28;;;13.20;99.90;;;;;;5064390;28;37756;-55
2022/07/17 00:34:58;;;;;;;12.27;2.67;;;13.20;99.90;;;;;;5064119;28;37990;-54
2022/07/17 00:37:25;;;;;;;7.43;2.60;;;13.20;99.90;;;;;;5062892;28;37902;-55
2022/07/17 00:39:53;;;;;;;8.85;2.80;;;13.20;99.90;;;;;;5063068;28;36481;-55
2022/07/17 00:42:20;;;;;;;10.68;3.20;;;13.20;99.90;;;;;;5060110;28;39919;-53
2022/07/17 00:44:47;;;;;;;7.13;3.10;;;13.10;99.90;;;;;;5062413;28;37763;-53
2022/07/17 00:47:16;;;;;;;9.15;3.10;;;13.10;99.90;;;;;;5061885;28;36137;-54
2022/07/17 00:49:45;;;;;;;8.35;2.70;;;13.10;99.90;;;;;;5065802;28;35283;-54
2022/07/17 00:52:14;;;;;;;8.35;3.17;;;13.10;99.90;;;;;;5066220;28;36278;-55
2022/07/17 00:54:42;;;;;;;8.40;3.10;;;13.10;99.90;;;;;;5067008;28;37839;-54
2022/07/17 00:57:12;;;;;;;9.20;3.10;;;13.10;99.90;;;;;;5066637;28;38576;-54
2022/07/17 00:59:40;;;;;;;8.57;2.88;;;13.00;99.90;;;;;;5067042;28;38089;-54
2022/07/17 01:02:10;;;;;;;9.18;3.33;;;13.00;99.90;;;;;;5066029;28;37508;-55
2022/07/17 01:04:39;;;;;;;13.35;4.30;;;13.00;99.90;;;;;;5063496;28;36679;-54
2022/07/17 01:07:10;;;;;;;8.88;3.38;;;13.00;99.90;;;;;;5066959;28;38102;-52
2022/07/17 01:09:37;;;;;;;8.82;3.35;;;13.00;99.90;;;;;;5066182;28;35300;-55
2022/07/17 01:12:06;;;;;;;9.90;3.00;;;12.90;99.90;;;;;;5065791;28;37971;-55
2022/07/17 01:14:33;;;;;;;10.23;3.83;;;12.90;99.90;;;;;;5066013;28;38129;-54
2022/07/17 01:17:02;;;;;;;7.60;3.45;;;12.90;99.90;;;;;;5066358;28;37466;-54
2022/07/17 01:19:29;;;;;;;9.52;3.78;;;12.90;99.90;;;;;;5067204;28;36689;-50
2022/07/17 01:21:57;;;;;;;7.50;3.17;;;12.90;99.90;;;;;;5065861;28;37337;-51
2022/07/17 01:24:25;;;;;;;9.77;3.40;;;12.90;99.90;;;;;;5066100;28;37930;-54
2022/07/17 01:26:52;;;;;;;9.82;3.28;;;12.90;99.90;;;;;;5064761;28;37357;-56
2022/07/17 01:29:20;;;;;;;8.05;3.10;;;12.90;99.90;;;;;;5066890;28;38911;-54
2022/07/17 01:31:48;;;;;;;7.78;3.22;;;12.80;99.90;;;;;;5065452;28;37744;-55
2022/07/17 01:34:15;;;;;;;12.10;4.53;;;12.90;99.90;;;;;;5067104;28;37585;-54
2022/07/17 01:36:43;;;;;;;8.80;3.45;;;12.90;99.90;;;;;;5064927;28;38450;-53
2022/07/17 01:39:12;;;;;;;9.90;3.17;;;12.90;99.90;;;;;;5066826;28;35424;-54
2022/07/17 01:41:39;;;;;;;13.38;4.40;;;12.80;99.90;;;;;;5065264;28;36434;-53
2022/07/17 01:44:08;;;;;;;9.45;3.15;;;12.80;99.90;;;;;;5064772;28;36306;-54
2022/07/17 01:46:35;;;;;;;9.90;2.95;;;12.80;99.90;;;;;;5065287;28;37352;-53
2022/07/17 01:49:03;;;;;;;7.18;2.35;;;12.80;99.90;;;;;;5065948;28;37862;-54
2022/07/17 01:51:30;;;;;;;6.60;2.10;;;12.70;99.90;;;;;;5065540;28;38127;-53
2022/07/17 01:53:58;;;;;;;6.55;2.20;;;12.70;99.90;;;;;;5065252;28;39177;-53
2022/07/17 01:56:26;;;;;;;5.53;2.38;;;12.80;99.90;;;;;;5065388;28;38592;-54
2022/07/17 01:58:54;;;;;;;7.20;2.38;;;12.70;99.90;;;;;;5064473;28;37778;-53
2022/07/17 02:01:21;;;;;;;4.32;1.83;;;12.70;99.90;;;;;;5064753;28;37671;-54
2022/07/17 02:03:48;;;;;;;3.35;1.42;;;12.70;99.90;;;;;;5064582;28;37264;-54
2022/07/17 02:06:16;;;;;;;4.10;1.05;;;12.70;99.90;;;;;;5064221;28;39945;-52
2022/07/17 02:08:44;;;;;;;5.95;2.22;;;12.70;99.90;;;;;;5065306;28;37514;-52
2022/07/17 02:11:11;;;;;;;5.30;2.25;;;12.70;99.90;;;;;;5065458;28;37324;-53
2022/07/17 02:13:40;;;;;;;8.13;2.47;;;12.70;99.90;;;;;;5065667;28;37690;-54
2022/07/17 02:16:07;;;;;;;8.57;2.50;;;12.60;99.90;;;;;;5065148;28;38343;-53
2022/07/17 02:18:35;;;;;;;7.07;2.45;;;12.60;99.90;;;;;;5065449;28;36434;-54
2022/07/17 02:21:02;;;;;;;6.80;2.40;;;12.60;99.90;;;;;;5066446;28;36274;-53
2022/07/17 02:23:30;;;;;;;6.40;2.40;;;12.60;99.90;;;;;;5065432;28;38967;-53
2022/07/17 02:25:57;;;;;;;9.10;2.60;;;12.60;99.90;;;;;;5063006;28;37234;-54
2022/07/17 02:28:24;;;;;;;9.30;2.45;;;12.60;99.90;;;;;;5065277;28;36140;-52
2022/07/17 02:30:53;;;;;;;6.57;2.28;;;12.60;99.90;;;;;;5065987;28;37588;-53
2022/07/17 02:33:20;;;;;;;6.72;2.40;;;12.60;99.90;;;;;;5066234;28;38058;-53
2022/07/17 02:35:47;;;;;;;8.93;2.67;;;12.60;99.90;;;;;;5064967;28;36186;-54
2022/07/17 02:38:15;;;;;;;6.93;2.10;;;12.60;99.90;;;;;;5066532;28;37445;-52
2022/07/17 02:40:42;;;;;;;6.60;2.50;;;12.60;99.90;;;;;;5063493;28;37668;-53
2022/07/17 02:43:10;;;;;;;9.95;3.20;;;12.60;99.90;;;;;;5064600;28;36784;-53
2022/07/17 02:45:38;;;;;;;6.85;2.55;;;12.60;99.90;;;;;;5062360;28;39377;-54
2022/07/17 02:48:06;;;;;;;6.47;2.33;;;12.60;99.90;;;;;;5065673;28;37276;-53
2022/07/17 02:50:34;;;;;;;7.45;2.72;;;12.60;99.90;;;;;;5065578;28;37351;-54
2022/07/17 02:53:01;;;;;;;6.03;2.42;;;12.70;99.90;;;;;;5064860;28;37710;-53
2022/07/17 02:55:29;;;;;;;3.72;1.70;;;12.70;99.90;;;;;;5064441;28;38011;-54
2022/07/17 02:57:56;;;;;;;2.03;1.27;;;12.70;99.90;;;;;;5064145;28;37445;-52
2022/07/17 03:00:24;;;;;;;2.80;1.40;;;12.60;99.90;;;;;;5065026;28;36519;-54
2022/07/17 03:02:51;;;;;;;3.28;1.45;;;12.50;99.90;;;;;;5063274;28;39999;-52
2022/07/17 03:05:20;;;;;;;4.80;1.90;;;12.50;99.90;;;;;;5061162;28;37418;-52
2022/07/17 03:07:48;;;;;;;4.60;1.83;;;12.40;99.90;;;;;;5064636;28;39398;-54
2022/07/17 03:10:15;;;;;;;5.70;1.85;;;12.40;99.90;;;;;;5063188;28;38092;-51
2022/07/17 03:12:43;;;;;;;5.95;2.00;;;12.40;99.90;;;;;;5062810;28;37576;-54
2022/07/17 03:15:11;;;;;;;5.60;2.42;;;12.40;99.90;;;;;;5062473;28;39210;-52
2022/07/17 03:17:40;;;;;;;6.45;2.65;;;12.40;99.90;;;;;;5065051;28;37713;-54
2022/07/17 03:20:09;;;;;;;6.53;2.30;;;12.50;99.90;;;;;;5063739;28;38900;-54
2022/07/17 03:22:37;;;;;;;6.60;2.40;;;12.40;99.90;;;;;;5064516;28;36326;-53
2022/07/17 03:25:06;;;;;;;3.88;2.20;;;12.50;99.90;;;;;;5063252;28;37794;-52
2022/07/17 03:27:33;;;;;;;3.95;1.95;;;12.50;99.90;;;;;;5063485;28;37498;-54
2022/07/17 03:30:00;;;;;;;1.95;1.20;;;12.50;99.90;;;;;;5062262;28;37650;-54
2022/07/17 03:32:28;;;;;;;4.55;1.83;;;12.50;99.90;;;;;;5065096;28;36488;-53
2022/07/17 03:34:55;;;;;;;4.70;1.38;;;12.40;99.90;;;;;;5064262;28;37919;-54
2022/07/17 03:37:22;;;;;;;4.68;2.25;;;12.40;99.90;;;;;;5063507;28;36860;-53
2022/07/17 03:39:51;;;;;;;4.80;2.10;;;12.40;99.90;;;;;;5064090;28;37191;-53
2022/07/17 03:42:18;;;;;;;5.60;1.90;;;12.40;99.90;;;;;;5062998;28;36597;-52
2022/07/17 03:44:46;;;;;;;3.78;1.73;;;12.40;99.90;;;;;;5063174;28;38611;-53
2022/07/17 03:47:13;;;;;;;3.78;1.85;;;12.40;99.90;;;;;;5062136;28;37268;-52
2022/07/17 03:49:41;;;;;;;3.58;1.85;;;12.40;99.90;;;;;;5064017;28;37434;-51
2022/07/17 03:52:08;;;;;;;4.75;1.90;;;12.50;99.90;;;;;;5063963;28;37437;-53
2022/07/17 03:54:35;;;;;;;4.70;2.00;;;12.50;99.90;;;;;;5063046;28;37577;-51
2022/07/17 03:57:04;;;;;;;5.43;2.08;;;12.50;99.90;;;;;;5064266;28;36758;-53
2022/07/17 03:59:31;;;;;;;5.80;2.20;;;12.50;99.90;;;;;;5062780;28;36831;-52
2022/07/17 04:01:58;;;;;;;5.90;2.47;;;12.50;99.90;;;;;;5063507;28;40137;-51
2022/07/17 04:04:26;;;;;;;8.02;2.60;;;12.50;99.90;;;;;;5063296;28;36102;-54
2022/07/17 04:06:53;;;;;;;6.18;2.70;;;12.50;99.90;;;;;;5061959;28;36730;-53
2022/07/17 04:09:20;;;;;;;6.18;2.60;;;12.60;99.90;;;;;;5063299;28;38275;-53
2022/07/17 04:11:48;;;;;;;6.72;2.70;;;12.60;99.90;;;;;;5061667;28;37506;-54
2022/07/17 04:14:16;;;;;;;7.47;2.72;;;12.60;99.90;;;;;;5063747;28;37584;-53
2022/07/17 04:16:44;;;;;;;8.35;3.25;;;12.70;99.90;;;;;;5063422;28;37712;-54
2022/07/17 04:19:11;;;;;;;6.47;2.42;;;12.70;99.90;;;;;;5064013;28;36244;-53
2022/07/17 04:21:38;;;;;;;6.10;2.60;;;12.70;99.90;;;;;;5062083;28;37894;-52
2022/07/17 04:24:06;;;;;;;6.07;2.80;;;12.70;99.90;;;;;;5065565;28;38181;-53
2022/07/17 04:26:33;;;;;;;10.30;3.28;;;12.80;99.90;;;;;;5063683;28;35637;-54
2022/07/17 04:29:02;;;;;;;7.43;2.85;;;12.80;99.90;;;;;;5067078;28;20514;-51
2022/07/17 04:31:30;;;;;;;6.07;2.47;;;12.80;99.90;;;;;;5066387;28;37590;-52
2022/07/17 04:33:58;;;;;;;5.55;2.58;;;12.80;99.90;;;;;;5067809;28;38019;-49
2022/07/17 04:36:25;;;;;;;6.80;2.40;;;12.80;99.90;;;;;;5067231;28;36953;-52
2022/07/17 04:38:52;;;;;;;7.20;2.42;;;12.90;99.90;;;;;;5067952;28;40096;-52
2022/07/17 04:41:19;;;;;;;6.40;2.70;;;12.90;99.90;;;;;;5066943;28;37630;-50
2022/07/17 04:43:47;;;;;;;9.80;2.60;;;13.00;99.90;;;;;;5065345;28;37120;-49
2022/07/17 04:46:14;;;;;;;7.88;2.47;;;13.00;99.90;;;;;;5066387;28;36249;-53
2022/07/17 04:48:43;;;;;;;7.72;2.50;;;13.00;99.90;;;;;;5066217;28;37188;-50
2022/07/17 04:51:10;;;;;;;5.72;2.10;;;13.10;99.90;;;;;;5066999;28;38525;-50
2022/07/17 04:53:38;;;;;;;6.13;2.40;;;13.10;99.90;;;;;;5066271;28;38163;-52
2022/07/17 04:56:08;;;;;;;5.22;2.42;;;13.10;99.90;;;;;;5065906;28;36194;-52
2022/07/17 04:58:36;;;;;;;7.95;2.55;;;13.20;99.90;;;;;;5065532;28;37423;-50
2022/07/17 05:01:03;;;;;;;5.40;2.40;;;13.20;99.90;;;;;;5066551;28;39084;-49
2022/07/17 05:03:30;;;;;;;8.13;2.88;;;13.20;99.90;;;;;;5067438;28;36752;-51
2022/07/17 05:05:59;;;;;;;7.10;2.53;;;13.30;99.90;;;;;;5067006;28;36648;-52
2022/07/17 05:08:26;;;;;;;5.13;2.40;;;13.30;99.90;;;;;;5066313;28;37435;-50
2022/07/17 05:10:54;;;;;;;8.52;3.20;;;13.40;99.90;;;;;;5066737;28;36522;-51
2022/07/17 05:13:21;;;;;;;5.72;2.53;;;13.40;99.90;;;;;;5067017;28;37636;-49
2022/07/17 05:15:49;;;;;;;10.45;3.40;;;13.40;99.90;;;;;;5065903;28;37547;-52
2022/07/17 05:18:16;;;;;;;10.18;2.50;;;13.50;99.90;;;;;;5066443;28;36385;-52
2022/07/17 05:20:44;;;;;;;6.38;2.05;;;13.50;99.90;;;;;;5065717;28;37180;-52
2022/07/17 05:23:12;;;;;;;5.57;1.92;;;13.50;99.90;;;;;;5065939;28;38445;-49
2022/07/17 05:25:40;;;;;;;8.35;2.90;;;13.60;99.90;;;;;;5065267;28;36393;-51
2022/07/17 05:28:07;;;;;;;6.03;2.20;;;13.60;99.90;;;;;;5066749;28;37369;-51
2022/07/17 05:30:34;;;;;;;6.15;2.03;;;13.60;99.90;;;;;;5066217;28;37922;-52
2022/07/17 05:33:02;;;;;;;8.35;2.10;;;13.70;99.90;;;;;;5065128;28;38263;-51
2022/07/17 05:35:30;;;;;;;4.38;1.80;;;13.70;99.90;;;;;;5065879;28;37953;-52
2022/07/17 05:37:57;;;;;;;5.35;2.03;;;13.70;99.90;;;;;;5066523;28;36239;-51
2022/07/17 05:40:26;;;;;;;6.40;2.05;;;13.80;99.90;;;;;;5066590;28;37510;-50
2022/07/17 05:42:58;;;;;;;3.70;1.58;;;13.80;99.90;;;;;;5066015;28;37276;-48
2022/07/17 05:45:25;;;;;;;6.15;1.92;;;13.90;99.90;;;;;;5064549;28;36515;-52
2022/07/17 05:47:52;;;;;;;5.53;1.60;;;13.90;99.90;;;;;;5065381;28;37454;-51
2022/07/17 05:50:20;;;;;;;7.03;2.30;;;14.00;99.90;;;;;;5065602;28;37625;-52
2022/07/17 05:52:47;;;;;;;10.07;2.47;;;14.10;99.90;;;;;;5066000;28;37222;-52
2022/07/17 05:55:15;;;;;;;8.32;2.28;;;14.10;99.90;;;;;;5064332;28;37010;-51
2022/07/17 05:57:43;;;;;;;8.38;2.10;;;14.20;99.90;;;;;;5063623;28;37123;-51
2022/07/17 06:00:12;;;;;;;4.82;1.63;;;14.40;99.90;;;;;;5063858;28;40387;-51
2022/07/17 06:02:39;;;;;;;7.72;2.05;;;14.60;99.90;;;;;;5063940;28;37161;-53
2022/07/17 06:05:07;;;;;;;7.65;2.40;;;14.80;99.90;;;;;;5062379;28;36310;-52
2022/07/17 06:07:35;;;;;;;6.00;1.67;;;15.00;99.90;;;;;;5063943;28;37647;-54
2022/07/17 06:10:02;;;;;;;6.68;1.80;;;15.20;99.90;;;;;;5063484;28;39055;-52
2022/07/17 06:12:30;;;;;;;6.18;1.90;;;15.40;99.90;;;;;;5063372;28;37748;-53
2022/07/17 06:14:59;;;;;;;5.75;1.65;;;15.60;99.90;;;;;;5064625;28;36435;-53
2022/07/17 06:17:28;;;;;;;3.58;1.10;;;15.70;99.90;;;;;;5063184;28;40049;-53
2022/07/17 06:19:55;;;;;;;6.43;1.60;;;15.90;99.90;;;;;;5063394;28;38119;-54
2022/07/17 06:22:23;;;;;;;5.65;1.35;;;16.00;99.90;;;;;;5064700;28;38699;-53
2022/07/17 06:24:50;;;;;;;6.50;1.23;;;16.10;99.90;;;;;;5064504;28;36810;-53
2022/07/17 06:27:17;;;;;;;7.05;1.33;;;16.30;99.90;;;;;;5064242;28;37666;-52
2022/07/17 06:29:46;;;;;;;4.72;1.30;;;16.40;99.90;;;;;;5063706;28;36457;-54
2022/07/17 06:32:15;;;;;;;6.13;1.10;;;16.50;99.90;;;;;;5064176;28;37311;-54
2022/07/17 06:34:42;;;;;;;8.50;1.92;;;16.60;99.90;;;;;;5064110;28;36532;-55
2022/07/17 06:37:09;;;;;;;5.93;1.52;;;16.70;99.90;;;;;;5063660;28;37397;-53
2022/07/17 06:39:37;;;;;;;7.43;1.35;;;16.70;99.90;;;;;;5064741;28;37625;-54
2022/07/17 06:42:05;;;;;;;5.90;1.95;;;16.70;99.90;;;;;;5063985;28;37363;-54
2022/07/17 06:44:33;;;;;;;4.70;1.20;;;16.60;99.90;;;;;;5063008;28;36217;-54
2022/07/17 06:47:00;;;;;;;6.78;1.13;;;16.50;99.90;;;;;;5062831;28;37285;-54
2022/07/17 06:49:29;;;;;;;7.25;1.20;;;16.50;99.90;;;;;;5064779;28;38967;-54
2022/07/17 06:51:56;;;;;;;7.13;1.17;;;16.40;99.90;;;;;;5064500;28;37406;-54
2022/07/17 06:54:25;;;;;;;3.85;0.80;;;16.30;99.90;;;;;;5063471;28;37756;-53
2022/07/17 06:56:53;;;;;;;5.70;1.65;;;16.30;99.90;;;;;;5063660;28;38062;-52
2022/07/17 06:59:21;;;;;;;5.00;1.10;;;16.20;99.90;;;;;;5064618;28;37717;-54
2022/07/17 07:01:48;;;;;;;3.22;0.93;;;16.20;99.90;;;;;;5062491;28;36957;-54
2022/07/17 07:04:16;;;;;;;6.47;1.55;;;16.20;99.90;;;;;;5062982;28;37109;-56
2022/07/17 07:06:45;;;;;;;7.05;1.38;;;16.10;99.90;;;;;;5062634;28;38537;-56
2022/07/17 07:09:12;;;;;;;9.45;1.67;;;16.10;99.90;;;;;;5063320;28;38205;-54
2022/07/17 07:11:40;;;;;;;7.90;1.58;;;16.10;99.90;;;;;;5064052;28;37799;-52
2022/07/17 07:14:08;;;;;;;8.98;1.40;;;16.10;99.90;;;;;;5063578;28;38001;-53
2022/07/17 07:16:36;;;;;;;4.35;1.13;;;16.00;99.90;;;;;;5063133;28;38236;-53
2022/07/17 07:19:03;;;;;;;8.70;1.30;;;16.00;99.90;;;;;;5062993;28;38661;-52
2022/07/17 07:21:31;;;;;;;8.10;1.65;;;16.00;99.90;;;;;;5063426;28;37414;-52
2022/07/17 07:23:59;;;;;;;4.55;1.33;;;16.00;99.90;;;;;;5060768;28;36749;-53
2022/07/17 07:26:27;;;;;;;7.35;1.65;;;16.00;99.90;;;;;;5062092;28;37874;-54
2022/07/17 07:28:54;;;;;;;8.57;1.88;;;16.00;99.90;;;;;;5063332;28;37980;-53
2022/07/17 07:31:22;;;;;;;4.32;1.00;;;16.00;99.90;;;;;;5063402;28;37586;-54
2022/07/17 07:33:49;;;;;;;6.35;1.60;;;16.00;99.90;;;;;;5064004;28;36152;-54
2022/07/17 07:36:17;;;;;;;5.75;1.20;;;16.10;99.90;;;;;;5064652;28;38092;-54
2022/07/17 07:38:45;;;;;;;6.05;1.30;;;16.10;99.90;;;;;;5063675;28;36717;-54
2022/07/17 07:41:14;;;;;;;10.15;3.13;;;16.10;99.90;;;;;;5064158;28;36116;-53
2022/07/17 07:43:41;;;;;;;17.73;9.30;;;16.20;99.90;;;;;;5062556;28;35131;-54
2022/07/17 07:46:09;;;;;;;7.25;1.90;;;16.20;99.90;;;;;;5064768;28;37143;-55
2022/07/17 07:48:36;;;;;;;7.28;1.83;;;16.30;99.90;;;;;;5062061;28;38487;-54
2022/07/17 07:51:03;;;;;;;3.75;1.00;;;16.30;99.90;;;;;;5062605;28;36257;-55
2022/07/17 07:53:31;;;;;;;4.72;1.00;;;16.30;99.90;;;;;;5063574;28;36621;-54
2022/07/17 07:55:58;;;;;;;4.03;1.60;;;16.40;99.90;;;;;;5060801;28;37742;-53
2022/07/17 07:58:27;;;;;;;7.10;1.20;;;16.40;99.90;;;;;;5062541;28;39075;-53
2022/07/17 08:00:54;;;;;;;12.98;1.42;;;16.40;99.90;;;;;;5066969;28;36326;-55
2022/07/17 08:03:22;;;;;;;13.10;1.40;;;16.50;99.90;;;;;;5066841;28;36620;-54
2022/07/17 08:05:49;;;;;;;5.40;1.40;;;16.50;99.90;;;;;;5063596;28;38455;-55
2022/07/17 08:08:16;;;;;;;10.10;2.03;;;16.60;99.90;;;;;;5065761;28;36557;-55
2022/07/17 08:10:44;;;;;;;7.10;1.17;;;16.60;99.90;;;;;;5064855;28;37289;-55
2022/07/17 08:13:11;;;;;;;8.57;1.52;;;16.70;99.90;;;;;;5064377;28;36414;-55
2022/07/17 08:15:40;;;;;;;6.80;1.30;;;16.80;99.90;;;;;;5065928;28;39094;-55
2022/07/17 08:18:07;;;;;;;6.95;1.30;;;17.00;99.90;;;;;;5063993;28;37643;-54
2022/07/17 08:20:34;;;;;;;8.00;1.35;;;17.20;99.90;;;;;;5064596;28;38601;-54
2022/07/17 08:23:02;;;;;;;8.68;1.80;;;17.30;99.90;;;;;;5063178;28;37219;-55
2022/07/17 08:25:29;;;;;;;5.55;1.45;;;17.50;99.90;;;;;;5062899;28;37548;-55
2022/07/17 08:27:56;;;;;;;9.32;1.33;;;17.70;99.90;;;;;;5064692;28;37926;-55
2022/07/17 08:30:24;;;;;;;13.93;1.92;;;17.80;99.80;;;;;;5066089;28;36359;-54
2022/07/17 08:32:52;;;;;;;10.00;1.73;;;17.90;99.40;;;;;;5063677;28;37748;-54
2022/07/17 08:35:20;;;;;;;7.38;1.17;;;18.10;99.20;;;;;;5064604;28;38914;-55
2022/07/17 08:37:48;;;;;;;6.13;1.27;;;18.10;98.70;;;;;;5067589;28;38254;-55
2022/07/17 08:40:20;;;;;;;6.95;1.33;;;18.20;98.60;;;;;;5068358;28;38542;-54
2022/07/17 08:42:48;;;;;;;8.60;1.30;;;18.30;98.20;;;;;;5067454;28;36391;-55
2022/07/17 08:45:15;;;;;;;20.30;2.40;;;18.40;98.20;;;;;;5068402;28;36482;-54
2022/07/17 08:47:43;;;;;;;8.20;1.80;;;18.40;98.00;;;;;;5067879;28;38163;-55
2022/07/17 08:50:13;;;;;;;6.50;1.00;;;18.60;97.70;;;;;;5067492;28;37459;-54
2022/07/17 08:52:42;;;;;;;6.45;0.90;;;18.60;97.50;;;;;;5067585;28;36568;-54
2022/07/17 08:55:12;;;;;;;6.68;0.93;;;18.80;97.10;;;;;;5067055;28;38143;-55
2022/07/17 08:57:40;;;;;;;12.02;1.98;;;18.90;97.20;;;;;;5068871;28;38015;-56
2022/07/17 09:00:10;;;;;;;5.00;1.20;;;19.00;97.20;;;;;;5067493;28;37889;-56
2022/07/17 09:02:38;;;;;;;15.70;2.13;;;19.10;96.50;;;;;;5068107;28;35495;-55
2022/07/17 09:05:07;;;;;;;16.27;1.90;;;19.20;96.30;;;;;;5068416;28;37510;-54
2022/07/17 09:07:47;;;;;;;8.25;1.23;;;19.30;96.30;;;;;;5067271;28;36483;-55
2022/07/17 09:10:14;;;;;;;6.63;1.58;;;19.30;95.90;;;;;;5066925;28;36291;-55
2022/07/17 09:12:42;;;;;;;7.43;1.23;;;19.40;95.70;;;;;;5067569;28;36339;-54
2022/07/17 09:15:17;;;;;;;29.52;2.80;;;19.50;95.60;;;;;;5067448;28;37721;-55
2022/07/17 09:17:51;;;;;;;3.20;0.98;;;19.60;95.70;;;;;;5065240;28;37640;-56
2022/07/17 09:20:20;;;;;;;8.07;1.10;;;19.70;95.30;;;;;;5066014;28;38137;-56
2022/07/17 09:23:00;;;;;;;7.22;1.35;;;19.70;95.10;;;;;;5065993;28;37139;-57
2022/07/17 09:25:35;;;;;;;6.32;1.13;;;19.80;94.70;;;;;;5064334;28;37087;-57
2022/07/17 09:28:04;;;;;;;6.25;1.13;;;19.90;95.10;;;;;;5065557;28;37078;-58
2022/07/17 09:30:33;;;;;;;5.82;1.58;;;19.90;94.40;;;;;;5066640;28;37317;-54
2022/07/17 09:33:00;;;;;;;5.68;1.42;;;20.00;93.50;;;;;;5066341;28;37893;-54
2022/07/17 09:35:28;;;;;;;3.03;1.02;;;20.00;93.00;;;;;;5064779;28;37506;-54
2022/07/17 09:37:57;;;;;;;5.68;1.08;;;20.10;93.20;;;;;;5065876;28;36589;-54
2022/07/17 09:43:09;;;;;;;17.55;10.35;;;20.30;93.50;;;;;;5067012;28;37787;-54
2022/07/17 09:45:37;;;;;;;7.38;2.55;;;20.40;93.00;;;;;;5066206;28;39570;-54
2022/07/17 09:48:05;;;;;;;29.35;24.42;;;20.50;93.00;;;;;;5066589;28;36562;-53
2022/07/17 09:50:34;;;;;;;10.27;3.85;;;20.60;92.80;;;;;;5065582;28;37297;-52
2022/07/17 09:53:04;;;;;;;5.68;1.38;;;20.70;92.90;;;;;;5067564;28;36654;-55
2022/07/17 09:55:32;;;;;;;4.00;0.90;;;20.70;92.20;;;;;;5066313;28;37524;-54
2022/07/17 09:58:03;;;;;;;8.98;0.90;;;20.70;91.90;;;;;;5066421;28;37743;-53
2022/07/17 10:00:31;;;;;;;8.32;1.33;;;20.80;91.80;;;;;;5067026;28;37120;-54
2022/07/17 10:02:58;;;;;;;5.97;2.22;;;20.80;91.60;;;;;;5066920;28;37454;-54
2022/07/17 10:05:27;;;;;;;7.57;4.20;;;20.90;92.00;;;;;;5065886;28;38170;-54
2022/07/17 10:07:54;;;;;;;6.30;1.88;;;21.00;91.90;;;;;;5065037;28;37786;-54
2022/07/17 10:10:24;;;;;;;9.07;1.83;;;21.00;91.20;;;;;;5066260;28;38415;-54
2022/07/17 10:12:52;;;;;;;4.82;1.70;;;21.10;91.10;;;;;;5066116;28;37840;-53
2022/07/17 10:15:24;;;;;;;6.75;1.35;;;21.20;91.00;;;;;;5066285;28;37651;-54
2022/07/17 10:17:51;;;;;;;6.43;1.65;;;21.20;90.00;;;;;;5065881;28;40010;-53
2022/07/17 10:20:26;;;;;;;5.47;1.20;;;21.20;89.60;;;;;;5066227;28;37538;-54
2022/07/17 10:22:53;;;;;;;4.32;1.42;;;21.30;89.90;;;;;;5065057;28;37752;-53
2022/07/17 10:25:20;;;;;;;5.32;1.67;;;21.50;89.30;;;;;;5066134;28;36354;-53
2022/07/17 10:27:52;;;;;;;4.78;1.10;;;21.40;88.40;;;;;;5065780;28;38563;-54
2022/07/17 10:30:26;;;;;;;7.00;1.55;;;21.30;87.30;;;;;;5066179;28;37468;-53
2022/07/17 10:32:56;;;;;;;4.90;1.10;;;21.30;85.90;;;;;;5066735;28;36509;-53
2022/07/17 10:35:23;;;;;;;4.00;1.60;;;21.20;87.10;;;;;;5066706;28;37105;-54
2022/07/17 10:37:51;;;;;;;5.15;1.30;;;21.20;89.70;;;;;;5065702;28;37526;-53
2022/07/17 10:40:20;;;;;;;4.47;1.20;;;21.30;90.80;;;;;;5065376;28;38302;-54
2022/07/17 10:42:59;;;;;;;4.40;1.30;;;21.40;90.30;;;;;;5066351;28;37459;-53
2022/07/17 10:45:32;;;;;;;4.22;1.20;;;21.40;90.10;;;;;;5065547;28;39348;-54
2022/07/17 10:48:00;;;;;;;;;;;21.40;90.80;;;;;;5065584;28;38430;-52
2022/07/17 10:50:30;;;;;;;4.28;1.45;;;21.50;87.70;;;;;;5066849;28;37389;-54
2022/07/17 10:53:08;;;;;;;5.95;1.95;;;21.50;90.50;;;;;;5065222;28;36029;-54
2022/07/17 10:55:39;;;;;;;4.57;1.45;;;21.50;90.00;;;;;;5065662;28;37401;-52
2022/07/17 10:58:20;;;;;;;46.03;36.42;;;21.50;89.70;;;;;;5065434;28;37824;-53
2022/07/17 11:00:58;;;;;;;18.42;9.50;;;21.50;90.00;;;;;;5065161;28;36197;-53
2022/07/17 11:03:26;;;;;;;5.50;1.90;;;21.60;87.40;;;;;;5066012;28;35774;-52
2022/07/17 11:05:54;;;;;;;10.60;2.08;;;21.50;86.50;;;;;;5065245;28;38207;-53
2022/07/17 11:08:22;;;;;;;5.20;1.40;;;21.60;87.20;;;;;;5065533;28;38272;-53
2022/07/17 11:10:49;;;;;;;3.58;1.33;;;21.60;87.60;;;;;;5065729;28;38424;-54
2022/07/17 11:13:18;;;;;;;4.45;1.13;;;21.60;87.70;;;;;;5065291;28;35297;-52
2022/07/17 11:15:48;;;;;;;17.08;2.22;;;21.70;86.30;;;;;;5064745;28;36467;-53
2022/07/17 11:18:17;;;;;;;5.82;1.83;;;21.70;87.70;;;;;;5064916;28;38166;-53
2022/07/17 11:20:49;;;;;;;5.22;1.20;;;21.80;88.90;;;;;;5065211;28;38307;-55
